Time;durP1;ratioP1;P1;durP2;ratioP2;P2;SDS_P1;SDS_P2;PMS_P1;PMS_P2;Temp;Humidity;BMP_temperature;BMP_pressure;BME280_temperature;BME280_humidity;BME280_pressure;Samples;Min_cycle;Max_cycle;Signal;HPM_P1;HPM_P2
2023/05/02 00:01:44;;;;;;;13.45;12.25;;;;;;;15.72;51.70;99965.81;4917873;28;98454;-85
2023/05/02 00:04:09;;;;;;;15.00;13.60;;;;;;;15.75;51.82;99964.78;4904485;28;98802;-85
2023/05/02 00:06:35;;;;;;;13.68;12.57;;;;;;;15.72;51.59;99952.56;4901947;28;96950;-85
2023/05/02 00:09:01;;;;;;;14.65;13.25;;;;;;;15.80;51.47;99963.56;4900241;28;96915;-85
2023/05/02 00:11:26;;;;;;;14.73;13.32;;;;;;;15.83;51.12;99957.22;4895890;28;101497;-85
2023/05/02 00:13:52;;;;;;;16.35;13.98;;;;;;;15.85;51.19;99960.59;4886169;28;99718;-84
2023/05/02 00:16:17;;;;;;;13.95;12.75;;;;;;;15.90;51.01;99962.97;4878398;28;97228;-85
2023/05/02 00:18:43;;;;;;;14.05;12.75;;;;;;;15.79;51.17;99951.25;4880255;28;97426;-85
2023/05/02 00:21:08;;;;;;;13.48;12.35;;;;;;;15.89;51.35;99958.66;4871431;28;101913;-86
2023/05/02 00:23:34;;;;;;;13.50;12.15;;;;;;;15.80;51.57;99946.81;4880180;28;101284;-86
2023/05/02 00:26:00;;;;;;;13.43;12.18;;;;;;;15.83;51.98;99958.06;4897660;28;96766;-85
2023/05/02 00:28:25;;;;;;;14.52;13.23;;;;;;;15.80;51.99;99955.63;4882709;28;96812;-85
2023/05/02 00:30:51;;;;;;;14.57;12.45;;;;;;;15.81;52.14;99952.00;4895990;28;101178;-85
2023/05/02 00:33:17;;;;;;;13.60;12.48;;;;;;;15.78;52.59;99951.34;4916079;28;97302;-84
2023/05/02 00:35:43;;;;;;;14.05;12.85;;;;;;;15.76;53.05;99948.78;4882771;28;97266;-85
2023/05/02 00:38:10;;;;;;;14.00;12.85;;;;;;;15.73;52.68;99948.97;4884194;28;97209;-85
2023/05/02 00:40:46;;;;;;;14.65;13.35;;;;;;;15.52;52.66;99932.59;4895276;28;101410;-85
2023/05/02 00:43:12;;;;;;;13.13;12.13;;;;;;;15.66;52.63;99942.34;4884067;28;100169;-87
2023/05/02 00:45:45;;;;;;;13.82;12.60;;;;;;;15.59;52.33;99941.00;4907816;28;97096;-83
2023/05/02 00:48:11;;;;;;;15.00;13.70;;;;;;;15.59;52.78;99941.00;4916314;28;97205;-85
2023/05/02 00:50:39;;;;;;;14.50;13.20;;;;;;;15.52;52.84;99934.38;4914431;28;98438;-85
2023/05/02 00:53:05;;;;;;;14.45;13.07;;;;;;;15.55;52.99;99940.34;4883301;28;101137;-85
2023/05/02 00:55:34;;;;;;;14.50;13.32;;;;;;;15.52;52.87;99940.53;4893553;28;97502;-85
2023/05/02 00:58:02;;;;;;;14.30;13.10;;;;;;;15.47;52.73;99933.81;4890601;28;96817;-85
2023/05/02 01:01:05;;;;;;;13.48;12.38;;;;;;;15.49;52.88;99929.28;4881194;28;98446;-85
2023/05/02 01:03:58;;;;;;;13.55;12.45;;;;;;;15.49;53.10;99932.78;4901873;28;100122;-85
2023/05/02 01:06:53;;;;;;;13.70;12.50;;;;;;;15.48;53.13;99940.81;4889304;28;97605;-85
2023/05/02 01:09:40;;;;;;;13.52;12.18;;;;;;;15.46;53.72;99935.59;4895101;28;97289;-82
2023/05/02 01:12:40;;;;;;;14.75;13.45;;;;;;;15.38;53.11;99938.69;4908112;28;100569;-84
2023/05/02 01:15:09;;;;;;;14.25;12.80;;;;;;;15.37;52.99;99930.88;4914421;28;98591;-87
2023/05/02 01:17:35;;;;;;;13.80;12.60;;;;;;;15.34;52.87;99929.25;4881929;28;96881;-85
2023/05/02 01:20:04;;;;;;;14.52;12.98;;;;;;;15.36;53.45;99931.84;4885932;28;97023;-86
2023/05/02 01:22:30;;;;;;;15.07;13.82;;;;;;;15.28;53.56;99928.78;4897972;28;98041;-86
2023/05/02 01:25:14;;;;;;;13.23;12.05;;;;;;;15.29;53.36;99943.69;4915023;28;97162;-85
2023/05/02 01:28:05;;;;;;;14.25;13.05;;;;;;;15.30;53.34;99935.69;4896884;28;96871;-86
2023/05/02 01:30:33;;;;;;;13.85;12.68;;;;;;;15.14;53.23;99924.31;4913941;28;98426;-85
2023/05/02 01:32:59;;;;;;;14.70;13.27;;;;;;;15.21;53.45;99949.44;4897979;28;99974;-87
2023/05/02 01:35:26;;;;;;;14.20;12.90;;;;;;;15.23;53.29;99949.34;4894752;28;97927;-86
2023/05/02 01:37:53;;;;;;;14.45;13.15;;;;;;;15.23;53.30;99938.78;4887645;28;97093;-86
2023/05/02 01:40:21;;;;;;;14.55;13.25;;;;;;;15.27;53.47;99945.56;4896894;28;97501;-84
2023/05/02 01:42:49;;;;;;;14.65;13.45;;;;;;;15.26;53.55;99949.16;4889469;28;100630;-87
2023/05/02 01:45:15;;;;;;;14.85;13.57;;;;;;;15.27;53.33;99951.75;4926465;28;97610;-86
2023/05/02 01:47:42;;;;;;;14.40;12.90;;;;;;;15.30;53.24;99948.03;4909521;28;96827;-86
2023/05/02 01:50:10;;;;;;;13.75;12.55;;;;;;;15.24;53.34;99949.28;4911891;28;96815;-84
2023/05/02 01:52:37;;;;;;;13.63;12.52;;;;;;;15.28;53.35;99949.94;4897866;28;99980;-86
2023/05/02 01:55:05;;;;;;;14.25;12.82;;;;;;;15.28;53.52;99948.16;4913782;28;99928;-84
2023/05/02 01:57:31;;;;;;;13.75;12.55;;;;;;;15.32;53.87;99951.44;4902120;28;98352;-86
2023/05/02 01:59:57;;;;;;;14.93;13.35;;;;;;;15.28;53.71;99950.78;4926625;28;97434;-86
2023/05/02 02:02:26;;;;;;;14.60;13.20;;;;;;;15.22;53.79;99937.09;4889439;28;100079;-85
2023/05/02 02:04:53;;;;;;;13.65;12.45;;;;;;;15.19;53.84;99930.19;4892311;28;101109;-86
2023/05/02 02:07:18;;;;;;;13.90;12.60;;;;;;;15.22;53.92;99951.16;4887578;28;97075;-84
2023/05/02 02:09:44;;;;;;;13.57;12.52;;;;;;;15.23;53.90;99949.34;4895435;28;96980;-86
2023/05/02 02:12:34;;;;;;;13.45;12.35;;;;;;;15.10;53.70;99933.38;4896161;28;101739;-86
2023/05/02 02:15:13;;;;;;;14.65;13.23;;;;;;;15.17;53.93;99956.69;4895612;28;99743;-85
2023/05/02 02:17:59;;;;;;;14.55;13.15;;;;;;;15.11;53.75;99965.00;4910551;28;97410;-86
2023/05/02 02:20:27;;;;;;;13.27;12.27;;;;;;;15.10;53.68;99965.94;4920644;28;96814;-85
2023/05/02 02:22:53;;;;;;;14.25;13.05;;;;;;;15.08;53.77;99967.81;4890475;28;101713;-86
2023/05/02 02:25:19;;;;;;;13.73;12.60;;;;;;;15.04;54.16;99965.44;4900862;28;98186;-83
2023/05/02 02:27:46;;;;;;;14.07;12.88;;;;;;;15.13;53.94;99978.97;4915456;28;96943;-85
2023/05/02 02:30:12;;;;;;;13.25;12.23;;;;;;;15.04;53.58;99982.16;4917186;28;96791;-86
2023/05/02 02:32:38;;;;;;;13.93;12.63;;;;;;;15.07;53.81;99992.56;4894840;28;100937;-84
2023/05/02 02:35:04;;;;;;;13.63;12.40;;;;;;;15.10;53.97;100005.59;4897684;28;101074;-86
2023/05/02 02:37:48;;;;;;;14.75;12.85;;;;;;;15.14;54.21;99998.34;4895785;28;97436;-85
2023/05/02 02:40:20;;;;;;;14.55;13.15;;;;;;;15.11;54.16;100002.00;4942625;28;96771;-85
2023/05/02 02:42:45;;;;;;;;;;;;;;;15.06;54.62;100009.34;4920719;28;98590;-86
2023/05/02 02:45:34;;;;;;;14.23;12.98;;;;;;;15.10;54.50;100010.88;4916976;28;97748;-86
2023/05/02 02:48:08;;;;;;;13.82;12.63;;;;;;;15.11;54.67;100015.22;4934890;28;96780;-85
2023/05/02 02:50:43;;;;;;;17.02;12.93;;;;;;;14.99;54.66;99996.59;4934224;28;97570;-86
2023/05/02 02:53:14;;;;;;;14.82;13.43;;;;;;;15.10;54.47;100017.97;4909784;28;101518;-84
2023/05/02 02:55:52;;;;;;;14.10;12.85;;;;;;;15.07;54.82;100005.78;4900250;28;101233;-85
2023/05/02 02:58:25;;;;;;;13.85;12.65;;;;;;;15.14;54.57;100022.13;4896658;28;97423;-86
2023/05/02 03:00:52;;;;;;;15.20;13.55;;;;;;;15.09;54.67;100022.38;4901421;28;96792;-86
2023/05/02 03:03:19;;;;;;;16.42;14.00;;;;;;;15.09;54.45;100010.97;4903707;28;101311;-86
2023/05/02 03:05:45;;;;;;;15.35;13.85;;;;;;;15.17;54.54;100025.44;4901987;28;101770;-85
2023/05/02 03:08:12;;;;;;;13.90;12.70;;;;;;;15.16;54.32;100023.75;4919132;28;97097;-86
2023/05/02 03:10:38;;;;;;;14.10;12.90;;;;;;;15.20;54.36;100040.28;4932189;28;97066;-85
2023/05/02 03:13:04;;;;;;;12.85;11.85;;;;;;;15.18;54.06;100023.63;4928144;28;101498;-86
2023/05/02 03:15:50;;;;;;;13.63;12.35;;;;;;;15.24;53.81;100030.38;4942278;28;98401;-84
2023/05/02 03:18:18;;;;;;;13.20;11.82;;;;;;;15.26;53.83;100025.84;4942910;28;97520;-84
2023/05/02 03:20:45;;;;;;;13.45;12.25;;;;;;;15.25;53.89;100019.72;4915057;28;96913;-85
2023/05/02 03:23:10;;;;;;;13.68;12.52;;;;;;;15.31;53.89;100027.28;4912233;28;100976;-85
2023/05/02 03:25:36;;;;;;;12.63;11.38;;;;;;;15.33;53.91;100038.63;4926170;28;99367;-84
2023/05/02 03:28:02;;;;;;;13.13;11.93;;;;;;;15.36;53.72;100040.25;4921994;28;96791;-86
2023/05/02 03:30:28;;;;;;;12.82;11.80;;;;;;;15.29;53.93;100028.31;4903673;28;97039;-84
2023/05/02 03:32:54;;;;;;;13.75;12.23;;;;;;;15.36;54.20;100045.53;4907855;28;101356;-86
2023/05/02 03:35:20;;;;;;;12.05;10.85;;;;;;;15.38;53.85;100048.94;4918820;28;101415;-86
2023/05/02 03:37:48;;;;;;;11.68;10.52;;;;;;;15.39;53.71;100066.53;4917972;28;97852;-86
2023/05/02 03:40:13;;;;;;;11.75;10.73;;;;;;;15.38;53.63;100067.44;4919001;28;97510;-84
2023/05/02 03:42:41;;;;;;;11.80;10.80;;;;;;;15.41;53.69;100069.91;4910679;28;101813;-86
2023/05/02 03:45:17;;;;;;;12.15;11.15;;;;;;;15.42;53.55;100068.13;4918073;28;98596;-85
2023/05/02 03:47:44;;;;;;;12.85;11.75;;;;;;;15.44;53.97;100068.88;4920459;28;97206;-85
2023/05/02 03:50:10;;;;;;;12.13;11.05;;;;;;;15.43;54.04;100070.69;4918408;28;96932;-86
2023/05/02 03:52:36;;;;;;;11.95;10.68;;;;;;;15.47;53.91;100079.28;4927525;28;100110;-86
2023/05/02 03:55:03;;;;;;;12.13;11.23;;;;;;;15.47;54.46;100080.13;4949379;28;97847;-86
2023/05/02 03:57:29;;;;;;;13.23;11.95;;;;;;;15.46;54.37;100072.31;4909822;28;97438;-86
2023/05/02 03:59:55;;;;;;;12.40;11.25;;;;;;;15.43;54.61;100075.97;4914286;28;97195;-85
2023/05/02 04:02:26;;;;;;;12.38;11.38;;;;;;;15.48;54.83;100091.59;4903510;28;100254;-86
2023/05/02 04:04:51;;;;;;;12.23;11.15;;;;;;;15.45;54.77;100084.69;4938898;28;98476;-86
2023/05/02 04:07:20;;;;;;;14.25;12.50;;;;;;;15.48;55.14;100095.06;4896549;28;96889;-85
2023/05/02 04:09:52;;;;;;;11.48;10.48;;;;;;;15.30;55.24;100067.03;4918185;28;96856;-85
2023/05/02 04:12:17;;;;;;;12.52;11.63;;;;;;;15.46;55.92;100090.81;4929681;28;100313;-85
2023/05/02 04:14:47;;;;;;;12.43;11.63;;;;;;;15.49;56.00;100102.06;4911655;28;101558;-86
2023/05/02 04:17:14;;;;;;;13.00;11.90;;;;;;;15.47;56.47;100109.22;4913191;28;97186;-86
2023/05/02 04:19:50;;;;;;;12.27;11.18;;;;;;;15.50;56.96;100116.97;4911963;28;96734;-85
2023/05/02 04:22:17;;;;;;;12.55;11.55;;;;;;;15.41;57.29;100109.59;4920710;28;99779;-86
2023/05/02 04:24:48;;;;;;;12.30;11.30;;;;;;;15.49;57.35;100131.16;4923256;28;101640;-86
2023/05/02 04:27:14;;;;;;;12.63;11.43;;;;;;;15.45;57.59;100127.00;4908668;28;97754;-87
2023/05/02 04:29:40;;;;;;;13.45;12.15;;;;;;;15.48;57.74;100139.19;4918533;28;97308;-86
2023/05/02 04:32:07;;;;;;;12.20;11.20;;;;;;;15.44;58.22;100143.78;4915313;28;100703;-86
2023/05/02 04:34:32;;;;;;;13.55;12.25;;;;;;;15.45;58.36;100144.66;4907219;28;101579;-85
2023/05/02 04:36:59;;;;;;;11.85;10.98;;;;;;;15.44;58.64;100158.81;4898166;28;97353;-86
2023/05/02 04:39:25;;;;;;;13.10;11.98;;;;;;;15.43;58.81;100163.25;4913112;28;97229;-86
2023/05/02 04:42:00;;;;;;;12.65;11.75;;;;;;;15.24;59.25;100133.50;4913331;28;101382;-84
2023/05/02 04:44:27;;;;;;;12.75;11.60;;;;;;;15.45;59.58;100171.97;4914855;28;100213;-86
2023/05/02 04:46:54;;;;;;;13.50;12.60;;;;;;;15.45;59.92;100173.75;4912411;28;97329;-85
2023/05/02 04:49:20;;;;;;;13.07;12.07;;;;;;;15.39;59.94;100170.53;4917539;28;97302;-87
2023/05/02 04:51:45;;;;;;;13.05;12.05;;;;;;;15.37;60.42;100175.03;4930201;28;98267;-86
2023/05/02 04:54:12;;;;;;;13.25;12.15;;;;;;;15.43;60.82;100181.78;4929925;28;102297;-86
2023/05/02 04:56:40;;;;;;;14.50;13.23;;;;;;;15.44;61.12;100175.53;4929286;28;96966;-85
2023/05/02 04:59:05;;;;;;;13.73;12.65;;;;;;;15.37;61.25;100171.53;4923112;28;97134;-86
2023/05/02 05:01:32;;;;;;;14.18;12.75;;;;;;;15.43;61.53;100179.13;4914599;28;101911;-85
2023/05/02 05:03:59;;;;;;;14.02;12.93;;;;;;;15.40;61.87;100174.84;4912468;28;100538;-84
2023/05/02 05:06:25;;;;;;;15.45;14.00;;;;;;;15.37;61.81;100171.53;4912373;28;96916;-85
2023/05/02 05:08:52;;;;;;;13.88;12.60;;;;;;;15.37;62.25;100168.91;4902951;28;97538;-86
2023/05/02 05:11:18;;;;;;;13.88;12.68;;;;;;;15.39;62.29;100177.59;4936139;28;101021;-85
2023/05/02 05:13:43;;;;;;;13.82;12.63;;;;;;;15.31;62.28;100164.81;4943403;28;99473;-87
2023/05/02 05:16:10;;;;;;;14.93;13.63;;;;;;;15.47;62.76;100182.44;4909109;28;97250;-86
2023/05/02 05:18:39;;;;;;;14.45;13.02;;;;;;;15.43;63.09;100189.69;4937389;28;97218;-86
2023/05/02 05:21:06;;;;;;;13.73;12.75;;;;;;;15.40;63.04;100182.78;4931601;28;98213;-86
2023/05/02 05:23:33;;;;;;;13.75;12.80;;;;;;;15.36;62.84;100181.28;4917264;28;101466;-86
2023/05/02 05:26:14;;;;;;;14.80;13.57;;;;;;;15.36;63.65;100194.50;4920184;28;97066;-86
2023/05/02 05:28:42;;;;;;;14.20;13.00;;;;;;;15.34;63.51;100198.16;4917661;28;97280;-86
2023/05/02 05:31:09;;;;;;;13.57;12.48;;;;;;;15.39;63.22;100204.91;4922850;28;100521;-86
2023/05/02 05:33:37;;;;;;;13.85;12.80;;;;;;;15.40;63.67;100206.59;4910323;28;100960;-85
2023/05/02 05:36:07;;;;;;;12.43;11.60;;;;;;;15.46;63.60;100212.50;4904851;28;96973;-85
2023/05/02 05:38:33;;;;;;;14.50;13.35;;;;;;;15.47;63.85;100208.91;4929226;28;97084;-85
2023/05/02 05:40:58;;;;;;;14.35;13.20;;;;;;;15.38;63.67;100197.03;4916591;28;99297;-86
2023/05/02 05:43:25;;;;;;;13.18;12.18;;;;;;;15.48;63.75;100211.47;4934635;28;100621;-86
2023/05/02 05:45:52;;;;;;;14.40;13.20;;;;;;;15.50;64.12;100220.16;4936904;28;96933;-84
2023/05/02 05:48:18;;;;;;;14.10;12.80;;;;;;;15.45;64.19;100209.00;4925954;28;97009;-85
2023/05/02 05:50:45;;;;;;;14.32;13.05;;;;;;;15.58;63.51;100219.72;4928922;28;101796;-84
2023/05/02 05:53:12;;;;;;;14.23;13.07;;;;;;;15.59;63.83;100222.31;4928846;28;101514;-83
2023/05/02 05:55:39;;;;;;;13.50;12.40;;;;;;;15.62;63.75;100227.41;4915034;28;97216;-83
2023/05/02 05:58:06;;;;;;;14.18;13.07;;;;;;;15.62;63.99;100218.63;4925232;28;96901;-85
2023/05/02 06:00:34;;;;;;;15.07;13.85;;;;;;;15.66;63.96;100225.44;4910204;28;101714;-85
2023/05/02 06:03:00;;;;;;;14.88;13.57;;;;;;;15.70;63.77;100236.72;4934308;28;101506;-84
2023/05/02 06:05:30;;;;;;;12.50;11.48;;;;;;;15.71;63.83;100236.66;4926744;28;97901;-84
2023/05/02 06:07:56;;;;;;;13.23;12.15;;;;;;;15.74;63.81;100239.13;4928552;28;97399;-85
2023/05/02 06:10:22;;;;;;;13.77;12.48;;;;;;;15.76;63.91;100233.75;4921155;28;101605;-84
2023/05/02 06:12:48;;;;;;;13.70;12.40;;;;;;;15.78;63.85;100237.16;4934023;28;101011;-84
2023/05/02 06:15:15;;;;;;;12.98;11.98;;;;;;;15.78;63.59;100242.44;4939758;28;97207;-84
2023/05/02 06:17:41;;;;;;;13.60;12.40;;;;;;;15.79;63.29;100241.50;4929203;28;98381;-84
2023/05/02 06:20:08;;;;;;;12.65;11.65;;;;;;;15.84;62.96;100257.97;4925233;28;101334;-85
2023/05/02 06:22:34;;;;;;;12.77;11.80;;;;;;;15.84;63.08;100258.81;4925536;28;101912;-84
2023/05/02 06:24:59;;;;;;;14.35;13.10;;;;;;;15.72;62.79;100227.78;4924225;28;97636;-84
2023/05/02 06:27:25;;;;;;;13.80;12.68;;;;;;;15.86;62.82;100257.91;4910330;28;97345;-84
2023/05/02 06:29:51;;;;;;;14.63;13.50;;;;;;;15.91;62.33;100261.13;4912962;28;101553;-85
2023/05/02 06:32:17;;;;;;;14.13;12.77;;;;;;;15.94;61.97;100268.88;4902912;28;101061;-84
2023/05/02 06:34:43;;;;;;;13.82;12.63;;;;;;;15.93;62.54;100272.50;4920125;28;97441;-84
2023/05/02 06:37:08;;;;;;;14.00;13.02;;;;;;;15.98;62.42;100275.72;4934401;28;97205;-84
2023/05/02 06:39:34;;;;;;;14.63;13.45;;;;;;;15.89;62.45;100270.97;4946821;28;98126;-85
2023/05/02 06:42:00;;;;;;;13.95;12.73;;;;;;;15.76;62.44;100242.53;4923627;28;100872;-84
2023/05/02 06:44:27;;;;;;;13.52;12.55;;;;;;;15.80;62.46;100259.09;4930951;28;97195;-84
2023/05/02 06:46:54;;;;;;;14.65;13.40;;;;;;;16.00;62.42;100284.44;4913755;28;97217;-84
2023/05/02 06:49:20;;;;;;;14.15;12.90;;;;;;;16.05;62.36;100287.66;4926286;28;101846;-84
2023/05/02 06:51:46;;;;;;;14.50;12.95;;;;;;;16.04;62.14;100291.25;4917025;28;97443;-84
2023/05/02 06:54:12;;;;;;;13.60;12.52;;;;;;;16.01;62.31;100286.16;4900338;28;96874;-84
2023/05/02 06:56:37;;;;;;;14.30;12.88;;;;;;;16.03;62.11;100294.88;4929573;28;97709;-85
2023/05/02 06:59:03;;;;;;;15.57;13.10;;;;;;;16.04;62.16;100292.13;4931316;28;98081;-85
2023/05/02 07:01:28;;;;;;;13.85;12.75;;;;;;;16.03;62.37;100285.13;4919909;28;99993;-84
2023/05/02 07:03:54;;;;;;;13.80;12.65;;;;;;;16.22;62.23;100306.09;4924694;28;96976;-85
2023/05/02 07:06:20;;;;;;;14.25;13.15;;;;;;;16.26;62.34;100307.63;4935387;28;96887;-84
2023/05/02 07:08:46;;;;;;;14.75;13.55;;;;;;;16.32;62.57;100303.78;4960264;28;101674;-84
2023/05/02 07:11:11;;;;;;;14.68;13.48;;;;;;;16.35;62.55;100316.84;4919195;28;101219;-84
2023/05/02 07:13:37;;;;;;;15.45;14.25;;;;;;;16.43;62.30;100319.88;4911037;28;97167;-84
2023/05/02 07:16:02;;;;;;;15.35;14.05;;;;;;;16.51;62.13;100300.88;4936710;28;97217;-83
2023/05/02 07:18:28;;;;;;;14.38;13.05;;;;;;;16.69;61.86;100310.38;4917355;28;101400;-84
2023/05/02 07:20:54;;;;;;;14.50;13.20;;;;;;;16.84;61.53;100298.06;4937484;28;98027;-84
2023/05/02 07:23:19;;;;;;;15.43;14.07;;;;;;;17.13;61.34;100314.88;4928031;28;96732;-84
2023/05/02 07:25:46;;;;;;;15.77;14.23;;;;;;;17.26;60.56;100317.59;4915258;28;97658;-84
2023/05/02 07:28:12;;;;;;;14.95;13.68;;;;;;;17.22;60.71;100318.75;4901267;28;101026;-86
2023/05/02 07:30:38;;;;;;;15.45;13.55;;;;;;;17.25;60.50;100320.34;4910926;28;102138;-84
2023/05/02 07:33:03;;;;;;;15.23;13.80;;;;;;;17.29;60.42;100314.75;4910276;28;97350;-83
2023/05/02 07:35:29;;;;;;;15.23;13.93;;;;;;;17.40;60.16;100312.28;4919335;28;97001;-87
2023/05/02 07:37:54;;;;;;;14.63;13.52;;;;;;;17.52;60.05;100315.13;4949410;28;100292;-84
2023/05/02 07:40:20;;;;;;;15.38;14.15;;;;;;;17.48;60.01;100305.63;4923173;28;100589;-83
2023/05/02 07:42:45;;;;;;;16.10;14.70;;;;;;;17.54;59.79;100314.09;4928825;28;97820;-83
2023/05/02 07:45:11;;;;;;;14.73;13.63;;;;;;;17.77;59.85;100322.38;4925340;28;98080;-85
2023/05/02 07:47:37;;;;;;;15.13;14.02;;;;;;;17.90;58.82;100315.38;4937535;28;98074;-85
2023/05/02 07:50:03;;;;;;;15.30;14.00;;;;;;;18.10;57.92;100335.31;4913275;28;100190;-84
2023/05/02 07:52:29;;;;;;;15.65;14.43;;;;;;;18.16;57.48;100329.59;4919461;28;97191;-82
2023/05/02 07:54:54;;;;;;;14.98;13.57;;;;;;;18.12;56.64;100321.91;4917834;28;96884;-82
2023/05/02 07:57:19;;;;;;;15.40;13.95;;;;;;;18.24;55.94;100335.28;4941837;28;98278;-83
2023/05/02 07:59:45;;;;;;;15.63;14.35;;;;;;;18.27;55.22;100326.25;4951364;28;98616;-87
2023/05/02 08:02:12;;;;;;;14.30;13.10;;;;;;;18.33;55.44;100345.28;4928462;28;97382;-85
2023/05/02 08:04:39;;;;;;;15.05;13.45;;;;;;;18.35;54.69;100334.53;4961250;28;97559;-86
2023/05/02 08:07:04;;;;;;;15.40;14.20;;;;;;;18.42;54.69;100348.31;4906547;28;100552;-85
2023/05/02 08:09:30;;;;;;;18.13;16.23;;;;;;;18.50;54.28;100349.50;4899438;28;100296;-86
2023/05/02 08:11:56;;;;;;;17.00;15.70;;;;;;;18.70;54.44;100361.47;4877073;28;98102;-85
2023/05/02 08:14:22;;;;;;;15.00;13.88;;;;;;;18.88;54.50;100355.84;4887313;28;97425;-86
2023/05/02 08:16:47;;;;;;;14.75;13.40;;;;;;;18.96;53.49;100351.72;4913765;28;97913;-86
2023/05/02 08:19:14;;;;;;;14.27;12.98;;;;;;;18.92;53.19;100344.91;4880076;28;101328;-86
2023/05/02 08:21:39;;;;;;;13.70;12.57;;;;;;;18.97;53.16;100352.59;4880657;28;96889;-89
2023/05/02 08:24:05;;;;;;;15.02;13.45;;;;;;;18.93;53.23;100359.91;4908106;28;96907;-80
2023/05/02 08:26:31;;;;;;;15.27;13.68;;;;;;;18.87;53.05;100351.50;4901612;28;101438;-78
2023/05/02 08:28:56;;;;;;;14.57;13.38;;;;;;;18.87;53.08;100360.31;4881515;28;100765;-79
2023/05/02 08:31:22;;;;;;;15.20;13.60;;;;;;;18.84;52.74;100355.22;4876878;28;97295;-79
2023/05/02 08:33:47;;;;;;;14.35;13.23;;;;;;;18.92;52.77;100362.69;4885054;28;97413;-80
2023/05/02 08:36:15;;;;;;;14.93;13.63;;;;;;;18.96;51.74;100354.38;4882527;28;101458;-79
2023/05/02 08:38:41;;;;;;;15.52;14.10;;;;;;;19.07;51.28;100368.75;4883087;28;101053;-80
2023/05/02 08:41:11;;;;;;;15.05;13.52;;;;;;;19.12;51.10;100371.97;4874939;28;97391;-79
2023/05/02 08:43:40;;;;;;;14.10;13.10;;;;;;;19.08;51.09;100373.13;4890673;28;97130;-80
2023/05/02 08:46:08;;;;;;;15.40;14.13;;;;;;;18.86;50.58;100358.63;4884477;28;100759;-80
2023/05/02 08:48:40;;;;;;;14.75;13.45;;;;;;;18.88;50.41;100366.50;4872350;28;101307;-79
2023/05/02 08:51:10;;;;;;;13.60;12.43;;;;;;;18.87;50.71;100375.44;4879414;28;97391;-78
2023/05/02 08:53:37;;;;;;;15.07;12.97;;;;;;;18.80;50.95;100385.66;4888409;28;97363;-79
2023/05/02 08:56:04;;;;;;;14.52;13.20;;;;;;;18.77;51.24;100385.84;4879317;28;98181;-79
2023/05/02 08:58:30;;;;;;;14.55;13.45;;;;;;;18.65;51.02;100387.50;4879653;28;97515;-80
2023/05/02 09:00:59;;;;;;;14.23;12.93;;;;;;;18.59;51.17;100385.25;4896075;28;97329;-81
2023/05/02 09:03:34;;;;;;;15.38;14.10;;;;;;;18.61;51.50;100395.75;4887514;28;97018;-80
2023/05/02 09:06:11;;;;;;;14.25;13.25;;;;;;;18.58;51.86;100390.66;4907246;28;101855;-79
2023/05/02 09:08:39;;;;;;;14.18;13.02;;;;;;;18.59;51.96;100393.22;4880513;28;100755;-77
2023/05/02 09:11:05;;;;;;;13.43;12.27;;;;;;;18.52;51.33;100386.59;4880114;28;97412;-79
2023/05/02 09:13:35;;;;;;;14.93;13.43;;;;;;;18.63;51.36;100415.13;4889374;28;97260;-79
2023/05/02 09:16:02;;;;;;;13.48;12.27;;;;;;;18.68;51.33;100413.03;4893671;28;101665;-79
2023/05/02 09:18:30;;;;;;;13.77;12.65;;;;;;;18.70;51.30;100411.09;4929804;28;98416;-79
2023/05/02 09:20:57;;;;;;;13.63;12.43;;;;;;;18.69;51.30;100415.56;4886836;28;96921;-80
2023/05/02 09:23:46;;;;;;;15.98;13.85;;;;;;;18.67;51.27;100413.97;4900022;28;96937;-79
2023/05/02 09:26:18;;;;;;;13.82;12.60;;;;;;;18.72;51.26;100412.69;4892389;28;101007;-79
2023/05/02 09:28:52;;;;;;;18.13;13.52;;;;;;;18.76;51.96;100413.38;4897874;28;101644;-79
2023/05/02 09:31:24;;;;;;;14.73;13.30;;;;;;;18.83;51.87;100419.16;4880785;28;97515;-80
2023/05/02 09:33:50;;;;;;;15.18;13.77;;;;;;;18.87;51.42;100421.50;4885792;28;97430;-82
2023/05/02 09:36:18;;;;;;;14.43;13.23;;;;;;;18.90;51.65;100425.75;4893399;28;101320;-79
2023/05/02 09:38:45;;;;;;;13.60;12.52;;;;;;;18.99;51.63;100427.78;4871812;28;101679;-80
2023/05/02 09:41:11;;;;;;;14.15;12.68;;;;;;;18.97;51.73;100419.94;4875996;28;97479;-79
2023/05/02 09:43:37;;;;;;;16.65;14.98;;;;;;;19.06;51.43;100430.91;4903074;28;97687;-79
2023/05/02 09:46:10;;;;;;;16.77;15.27;;;;;;;19.06;51.46;100436.25;4885768;28;97980;-81
2023/05/02 09:48:55;;;;;;;15.32;14.18;;;;;;;19.03;51.66;100439.09;4885056;28;97564;-85
2023/05/02 09:51:22;;;;;;;16.00;14.60;;;;;;;18.92;51.35;100426.50;4890442;28;97366;-85
2023/05/02 09:53:48;;;;;;;14.75;13.50;;;;;;;19.09;51.56;100436.88;4889264;28;98000;-84
2023/05/02 09:56:14;;;;;;;15.85;14.40;;;;;;;19.27;51.40;100448.06;4901550;28;97495;-84
2023/05/02 09:58:40;;;;;;;15.55;14.25;;;;;;;19.32;50.01;100440.63;4874143;28;101283;-84
2023/05/02 10:01:05;;;;;;;15.00;13.75;;;;;;;19.37;49.78;100449.16;4892925;28;97234;-83
2023/05/02 10:03:36;;;;;;;16.40;14.57;;;;;;;19.46;49.09;100437.03;4876424;28;97427;-83
2023/05/02 10:06:02;;;;;;;15.93;14.73;;;;;;;19.57;49.38;100436.25;4870965;28;102481;-82
2023/05/02 10:08:28;;;;;;;14.80;13.50;;;;;;;19.68;49.81;100445.22;4890821;28;101594;-84
2023/05/02 10:10:57;;;;;;;15.90;14.38;;;;;;;19.75;49.16;100444.78;4884906;28;97198;-83
2023/05/02 10:13:31;;;;;;;15.07;13.68;;;;;;;19.84;48.98;100453.00;4884607;28;97518;-82
2023/05/02 10:16:07;;;;;;;16.05;14.65;;;;;;;19.95;49.07;100454.88;4873783;28;100862;-83
2023/05/02 10:18:42;;;;;;;16.55;14.82;;;;;;;19.99;49.15;100455.56;4879167;28;97488;-85
2023/05/02 10:21:10;;;;;;;14.25;13.15;;;;;;;20.05;48.11;100452.44;4885510;28;97457;-85
2023/05/02 10:23:40;;;;;;;13.70;12.63;;;;;;;20.07;47.43;100453.16;4892317;28;98228;-83
2023/05/02 10:26:05;;;;;;;15.23;14.02;;;;;;;20.10;46.45;100448.50;4879784;28;101316;-83
2023/05/02 10:28:31;;;;;;;17.17;13.73;;;;;;;20.10;45.89;100444.94;4913086;28;97939;-83
2023/05/02 10:30:57;;;;;;;14.85;13.45;;;;;;;20.08;45.66;100454.88;4895332;28;97134;-82
2023/05/02 10:33:23;;;;;;;13.80;12.63;;;;;;;20.10;46.08;100461.81;4871666;28;97370;-85
2023/05/02 10:35:48;;;;;;;14.63;13.52;;;;;;;20.06;45.86;100447.00;4875467;28;101737;-82
2023/05/02 10:38:19;;;;;;;15.40;14.10;;;;;;;20.15;45.16;100457.94;4911214;28;97845;-84
2023/05/02 10:40:58;;;;;;;14.88;13.52;;;;;;;20.08;44.75;100450.41;4892886;28;97239;-83
2023/05/02 10:43:26;;;;;;;15.70;14.07;;;;;;;20.18;45.02;100452.41;4889799;28;97122;-83
2023/05/02 10:45:53;;;;;;;16.55;14.95;;;;;;;20.25;45.12;100461.69;4894710;28;101726;-89
2023/05/02 10:48:19;;;;;;;15.60;14.10;;;;;;;20.31;45.18;100470.06;4880386;28;101501;-84
2023/05/02 10:50:56;;;;;;;14.52;13.07;;;;;;;20.32;44.32;100465.59;4885577;28;97231;-85
2023/05/02 10:53:29;;;;;;;15.48;13.85;;;;;;;20.33;44.39;100462.81;4902916;28;97304;-89
2023/05/02 10:56:11;;;;;;;18.48;14.32;;;;;;;20.34;44.64;100458.34;4891346;28;100359;-83
2023/05/02 10:58:36;;;;;;;15.95;14.45;;;;;;;20.39;44.59;100464.19;4883475;28;99450;-86
2023/05/02 11:01:25;;;;;;;15.07;13.68;;;;;;;20.34;44.44;100453.00;4879949;28;98152;-88
2023/05/02 11:04:06;;;;;;;14.68;13.32;;;;;;;20.48;44.05;100466.19;4926823;28;97076;-89
2023/05/02 11:07:00;;;;;;;13.98;12.68;;;;;;;20.51;43.59;100463.28;4901904;28;98563;-84
2023/05/02 11:09:30;;;;;;;13.77;12.57;;;;;;;20.45;43.43;100447.75;4910359;28;100459;-90
2023/05/02 11:11:56;;;;;;;14.83;13.53;;;;;;;20.54;43.41;100475.59;4912596;28;97588;-85
2023/05/02 11:14:24;;;;;;;14.52;13.23;;;;;;;20.53;43.02;100471.19;4909652;28;97224;-90
2023/05/02 11:16:56;;;;;;;13.82;12.57;;;;;;;20.55;43.71;100470.13;4929357;28;98112;-91